Speed, Indiana
Current Conditions -  °F | °C
As of 6:53 AM on Friday 28 Nov 2014 (Local Time) from KLOU Reporting Station
Overcast Overcast  
Wind Chill: 21°   Ceiling: 9500
Heat Index: 26°   Visibility: 10mi
Dew Point: 19°   Wind: 5mph
Humidity: 75%   Direction: 170°S
Pressure: 30.43"   Gusts: NA
Location:  38.3931°N, 85.7713°W
Report Text: KLOU 281153Z 17004KT 10SM OVC095 M03/M07 A3043 RMK AO2 SLP310 T10331072 11017 21044 51002
Loading
Personal Weather Stations






























Interactive Weather Map New forecast layout! Learn more

10-Day Weather Forecast

Advertisements
Track Severe Weather on mobile